All
Christmas Creek Airport (Christmas Creek, WA) CKW Weather
|
Christmas Creek, WA (CKW / YCHK)
Clear skies
Light winds |
|
60 °F |
CKW Terminal Area Forecast
| Date | Time (AWST) | Flight Rules | Wind Dir. | Speed | Type | Height AGL (ft) | Visibility | Remarks | ||||||
|---|---|---|---|---|---|---|---|---|---|---|---|---|---|---|
Recent CKW METAR history
| Date | Time (AWST) | Flight Rules | Wind Dir. | Speed | Type | Height AGL (ft) | Visibility | Temp (°C) | Temp (°F) | Dew Point (°C) | Dew Point (°F) | Rel. Humid. | Pressure | Density Altitude | Remarks |
|---|---|---|---|---|---|---|---|---|---|---|---|---|---|---|---|
| 06-May | 01:00AM | VFR | 140° | 4 kt | 10000 meters | 16° | 60° | -1° | 30° | 31% | 1020 mb | 1,611 ft | |||
| 06-May | 12:00AM | VFR | 130° | 6 kt | 10000 meters | 17° | 62° | -1° | 30° | 29% | 1020 mb | 1,731 ft | |||
| 05-May | 11:00PM | VFR | 130° | 6 kt | 10000 meters | 18° | 64° | -2° | 28° | 26% | 1020 mb | 1,851 ft | |||
| 05-May | 10:00PM | VFR | 140° | 6 kt | 10000 meters | 18° | 64° | -2° | 28° | 26% | 1020 mb | 1,851 ft | |||
| 05-May | 09:00PM | VFR | 130° | 6 kt | 10000 meters | 20° | 68° | -2° | 28° | 23% | 1020 mb | 2,091 ft | |||
| 05-May | 08:00PM | VFR | 140° | 5 kt | 10000 meters | 21° | 69° | -2° | 28° | 21% | 1020 mb | 2,211 ft | |||
| 05-May | 07:00PM | VFR | 140° | 6 kt | 10000 meters | 23° | 73° | -2° | 28° | 19% | 1020 mb | 2,451 ft | |||
| 05-May | 06:00PM | VFR | 140° | 8 kt | 10000 meters | 24° | 75° | -1° | 30° | 19% | 1019 mb | 2,601 ft | |||
| 05-May | 05:00PM | VFR | 140° | 10 kt | 10000 meters | 25° | 77° | -2° | 28° | 17% | 1019 mb | 2,721 ft | |||
| 05-May | 04:00PM | VFR | 120° | 11 kt | 10000 meters | 25° | 77° | -3° | 26° | 15% | 1018 mb | 2,750 ft | |||
| 05-May | 03:00PM | VFR | 140° | 12 kt | 10000 meters | 26° | 78° | -3° | 26° | 15% | 1018 mb | 2,870 ft | |||
| 05-May | 02:00PM | VFR | 120° | 10 kt | 10000 meters | 25° | 77° | -3° | 26° | 15% | 1018 mb | 2,750 ft | |||
| 05-May | 01:00PM | VFR | 110° | 8 kt | 10000 meters | 24° | 75° | -1° | 30° | 19% | 1019 mb | 2,601 ft | |||
| gap in available data | |||||||||||||||
| 05-May | 11:30AM | VFR | 110° | 12 kt | 10000 meters | 22° | 71° | -1° | 30° | 21% | 1021 mb | 2,301 ft | |||
| 05-May | 11:00AM | VFR | 110° | 13 kt | 10000 meters | 22° | 71° | 0° | 32° | 23% | 1021 mb | 2,301 ft | |||
| 05-May | 10:00AM | VFR | 110° | 12 kt | 10000 meters | 20° | 68° | 1° | 33° | 28% | 1022 mb | 2,032 ft | |||
| 05-May | 09:00AM | VFR | 110° | 11 kt | 10000 meters | 18° | 64° | 2° | 35° | 34% | 1022 mb | 1,792 ft | |||
| 05-May | 08:00AM | VFR | 130° | 9 kt | 10000 meters | 15° | 59° | 1° | 33° | 39% | 1022 mb | 1,432 ft | |||
| 05-May | 07:00AM | VFR | 160° | 6 kt | 10000 meters | 12° | 53° | -1° | 30° | 40% | 1022 mb | 1,072 ft | |||
| 05-May | 06:00AM | VFR | 160° | 6 kt | 10000 meters | 12° | 53° | -1° | 30° | 40% | 1021 mb | 1,101 ft | |||
| 05-May | 05:00AM | VFR | 150° | 5 kt | 10000 meters | 13° | 55° | -2° | 28° | 35% | 1021 mb | 1,221 ft | |||
| 05-May | 04:00AM | VFR | 130° | 7 kt | 10000 meters | 14° | 57° | -2° | 28° | 33% | 1020 mb | 1,371 ft | |||
| 05-May | 03:00AM | VFR | 120° | 6 kt | 10000 meters | 15° | 59° | -3° | 26° | 29% | 1020 mb | 1,491 ft | |||
| 05-May | 02:00AM | VFR | 130° | 6 kt | 10000 meters | 16° | 60° | -3° | 26° | 27% | 1021 mb | 1,581 ft | |||
Login
| Your browser is unsupported. upgrade your browser |
